< < Back
Terminal Aerodrome Forecast


Current Version              Previous Versions:   1  2  3  4  5  6  7  8  9  

Terminal Aerodrome Forecast

161
FTUS42 KFFC 012300
TAFMCN
TAF
KMCN 012320Z 0200/0224 VRB05KT P6SM TS SCT050CB BKN080
      TEMPO 0200/0202 VRB15G30KT 3SM TSRA BKN045CB
     FM020200 00000KT P6SM FEW050 SCT150 SCT250
     FM021400 VRB03KT P6SM SCT030 SCT150
     FM021800 VRB05KT P6SM SCT050 SCT150 PROB30 0219/0223 VRB15G30KT
      5SM TSRA BKN045CB=



Latest METAR

669
SAUS80 KWBC 020700
MTRMCN
METAR KMCN 020653Z AUTO 00000KT 10SM CLR 23/22 A3006 RMK AO2 SLP175
T02280222 TSNO


USA.gov is the U.S. government's official web portal to all federal, state and local government web resources and services.